createdAt,value
2019-02-14T00:01:47.253Z,100063.80
2019-02-14T00:04:16.500Z,100069.66
2019-02-14T00:06:45.760Z,100070.83
2019-02-14T00:09:16.208Z,100065.82
2019-02-14T00:11:45.452Z,100072.15
2019-02-14T00:14:14.726Z,100078.19
2019-02-14T00:16:43.959Z,100068.97
2019-02-14T00:19:13.262Z,100074.71
2019-02-14T00:21:42.490Z,100072.78
2019-02-14T00:24:11.800Z,100065.14
2019-02-14T00:26:41.033Z,100066.20
2019-02-14T00:29:10.298Z,100064.15
2019-02-14T00:31:39.549Z,100065.00
2019-02-14T00:34:08.832Z,100062.48
2019-02-14T00:36:38.076Z,100063.92
2019-02-14T00:39:07.343Z,100063.92
2019-02-14T00:41:36.568Z,100065.20
2019-02-14T00:44:05.814Z,100057.33
2019-02-14T00:46:35.103Z,100058.17
2019-02-14T00:49:04.415Z,100056.59
2019-02-14T00:51:33.668Z,100065.05
2019-02-14T00:54:02.921Z,100070.25
2019-02-14T00:56:32.256Z,100067.63
2019-02-14T00:59:01.533Z,100072.27
2019-02-14T01:01:30.790Z,100072.48
2019-02-14T01:04:00.039Z,100081.74
2019-02-14T01:06:29.291Z,100080.66
2019-02-14T01:08:58.560Z,100072.05
2019-02-14T01:11:27.798Z,100080.61
2019-02-14T01:13:57.057Z,100080.16
2019-02-14T01:16:26.279Z,100072.17
2019-02-14T01:18:55.562Z,100071.94
2019-02-14T01:21:25.661Z,100073.70
2019-02-14T01:23:54.965Z,100076.23
2019-02-14T01:26:24.249Z,100074.55
2019-02-14T01:28:53.500Z,100073.23
2019-02-14T01:31:22.801Z,100074.81
2019-02-14T01:33:52.077Z,100071.41
2019-02-14T01:36:21.345Z,100074.84
2019-02-14T01:38:50.611Z,100070.45
2019-02-14T01:41:19.831Z,100061.45
2019-02-14T01:43:49.120Z,100063.80
2019-02-14T01:46:18.388Z,100060.48
2019-02-14T01:48:47.643Z,100059.98
2019-02-14T01:51:16.869Z,100058.90
2019-02-14T01:53:46.141Z,100054.50
2019-02-14T01:56:15.408Z,100053.08
2019-02-14T01:58:44.681Z,100047.95
2019-02-14T02:01:13.918Z,100047.73
2019-02-14T02:03:43.174Z,100052.34
2019-02-14T02:06:12.421Z,100054.13
2019-02-14T02:08:41.690Z,100046.81
2019-02-14T02:11:12.309Z,100052.34
2019-02-14T02:13:41.565Z,100060.83
2019-02-14T02:16:10.806Z,100054.72
2019-02-14T02:18:40.393Z,100047.67
2019-02-14T02:21:09.638Z,100051.61
2019-02-14T02:23:38.930Z,100044.37
2019-02-14T02:26:08.156Z,100049.38
2019-02-14T02:28:37.372Z,100050.19
2019-02-14T02:31:06.620Z,100058.27
2019-02-14T02:33:35.849Z,100055.02
2019-02-14T02:36:05.116Z,100051.82
2019-02-14T02:38:34.350Z,100058.50
2019-02-14T02:41:03.604Z,100058.04
2019-02-14T02:43:32.851Z,100058.66
2019-02-14T02:46:02.128Z,100056.67
2019-02-14T02:48:31.389Z,100060.13
2019-02-14T02:51:00.624Z,100062.02
2019-02-14T02:53:29.845Z,100058.44
2019-02-14T02:55:59.089Z,100063.55
2019-02-14T02:58:28.318Z,100055.34
2019-02-14T03:00:57.579Z,100061.16
2019-02-14T03:03:26.826Z,100058.16
2019-02-14T03:05:56.118Z,100065.89
2019-02-14T03:08:25.361Z,100058.71
2019-02-14T03:10:54.649Z,100059.58
2019-02-14T03:13:23.995Z,100061.73
2019-02-14T03:15:53.207Z,100057.70
2019-02-14T03:18:22.430Z,100058.22
2019-02-14T03:20:51.687Z,100060.78
2019-02-14T03:23:20.979Z,100052.81
2019-02-14T03:25:50.251Z,100056.05
2019-02-14T03:28:19.498Z,100065.09
2019-02-14T03:30:48.757Z,100060.27
2019-02-14T03:33:18.047Z,100056.17
2019-02-14T03:35:47.291Z,100056.80
2019-02-14T03:38:16.536Z,100057.81
2019-02-14T03:40:45.807Z,100065.09
2019-02-14T03:43:15.067Z,100063.21
2019-02-14T03:45:44.406Z,100068.06
2019-02-14T03:48:13.646Z,100073.36
2019-02-14T03:50:42.914Z,100084.47
2019-02-14T03:53:12.148Z,100077.45
2019-02-14T03:55:41.429Z,100078.25
2019-02-14T03:58:10.660Z,100076.98
2019-02-14T04:00:39.911Z,100088.34
2019-02-14T04:03:09.143Z,100088.84
2019-02-14T04:05:38.394Z,100090.85
2019-02-14T04:08:07.644Z,100098.03
2019-02-14T04:10:36.945Z,100097.16
2019-02-14T04:13:06.205Z,100094.95
2019-02-14T04:15:35.467Z,100093.28
2019-02-14T04:18:04.708Z,100092.79
2019-02-14T04:20:34.002Z,100091.75
2019-02-14T04:23:03.255Z,100085.83
2019-02-14T04:25:32.515Z,100091.30
2019-02-14T04:28:01.926Z,100099.61
2019-02-14T04:30:31.225Z,100102.69
2019-02-14T04:33:00.469Z,100100.23
2019-02-14T04:35:29.743Z,100096.52
2019-02-14T04:37:58.998Z,100100.66
2019-02-14T04:40:33.580Z,100101.91
2019-02-14T04:42:59.220Z,100099.18
2019-02-14T04:45:28.590Z,100091.32
2019-02-14T04:47:57.854Z,100091.89
2019-02-14T04:50:27.120Z,100100.81
2019-02-14T04:52:56.392Z,100093.48
2019-02-14T04:55:25.637Z,100100.07
2019-02-14T04:57:54.871Z,100105.91
2019-02-14T05:00:24.121Z,100105.21
2019-02-14T05:02:53.374Z,100101.14
2019-02-14T05:05:22.672Z,100102.55
2019-02-14T05:07:51.947Z,100111.47
2019-02-14T05:10:21.263Z,100096.08
2019-02-14T05:12:50.487Z,100084.08
2019-02-14T05:15:19.765Z,100095.19
2019-02-14T05:17:49.038Z,100106.09
2019-02-14T05:20:18.328Z,100104.10
2019-02-14T05:22:47.579Z,100100.53
2019-02-14T05:25:16.859Z,100118.02
2019-02-14T05:27:46.116Z,100123.39
2019-02-14T05:30:15.374Z,100120.98
2019-02-14T05:32:44.615Z,100121.94
2019-02-14T05:35:13.896Z,100118.09
2019-02-14T05:37:43.143Z,100112.17
2019-02-14T05:40:12.392Z,100111.50
2019-02-14T05:42:41.685Z,100118.02
2019-02-14T05:45:11.389Z,100128.48
2019-02-14T05:47:40.688Z,100133.23
2019-02-14T05:50:10.190Z,100126.58
2019-02-14T05:52:39.498Z,100123.04
2019-02-14T05:55:10.079Z,100122.47
2019-02-14T05:57:39.436Z,100133.90
2019-02-14T06:00:10.655Z,100142.49
2019-02-14T06:02:39.908Z,100143.66
2019-02-14T06:05:09.163Z,100145.99
2019-02-14T06:07:38.463Z,100149.73
2019-02-14T06:10:08.237Z,100142.91
2019-02-14T06:12:37.506Z,100134.11
2019-02-14T06:15:07.411Z,100130.47
2019-02-14T06:17:36.706Z,100128.52
2019-02-14T06:20:06.303Z,100134.11
2019-02-14T06:22:35.577Z,100145.67
2019-02-14T06:25:04.929Z,100136.83
2019-02-14T06:27:34.192Z,100134.28
2019-02-14T06:30:03.455Z,100141.22
2019-02-14T06:32:32.718Z,100139.91
2019-02-14T06:35:03.462Z,100140.66
2019-02-14T06:37:32.713Z,100146.80
2019-02-14T06:40:01.947Z,100150.20
2019-02-14T06:42:31.248Z,100151.05
2019-02-14T06:45:00.509Z,100148.97
2019-02-14T06:47:29.940Z,100154.17
2019-02-14T06:49:59.224Z,100155.05
2019-02-14T06:52:28.515Z,100151.36
2019-02-14T06:54:57.796Z,100148.64
2019-02-14T06:57:27.093Z,100154.22
2019-02-14T06:59:56.318Z,100155.78
2019-02-14T07:02:25.625Z,100158.03
2019-02-14T07:04:54.876Z,100160.81
2019-02-14T07:07:24.127Z,100155.13
2019-02-14T07:09:53.386Z,100162.94
2019-02-14T07:12:22.898Z,100170.11
2019-02-14T07:14:52.199Z,100168.77
2019-02-14T07:17:21.588Z,100176.53
2019-02-14T07:19:50.865Z,100170.58
2019-02-14T07:22:20.135Z,100166.79
2019-02-14T07:24:49.380Z,100174.69
2019-02-14T07:27:18.698Z,100170.76
2019-02-14T07:29:47.935Z,100171.01
2019-02-14T07:32:17.198Z,100173.10
2019-02-14T07:34:46.619Z,100172.37
2019-02-14T07:37:15.890Z,100171.58
2019-02-14T07:39:45.174Z,100172.02
2019-02-14T07:42:14.485Z,100173.05
2019-02-14T07:44:43.738Z,100173.69
2019-02-14T07:47:13.055Z,100169.30
2019-02-14T07:49:42.416Z,100176.59
2019-02-14T07:52:11.747Z,100175.44
2019-02-14T07:54:44.815Z,100173.88
2019-02-14T07:57:14.060Z,100169.27
2019-02-14T07:59:43.499Z,100180.95
2019-02-14T08:02:12.761Z,100186.40
2019-02-14T08:04:42.078Z,100173.69
2019-02-14T08:07:11.318Z,100172.14
2019-02-14T08:09:40.564Z,100168.95
2019-02-14T08:12:09.834Z,100167.90
2019-02-14T08:14:39.047Z,100172.83
2019-02-14T08:17:08.300Z,100164.14
2019-02-14T08:19:37.551Z,100165.13
2019-02-14T08:22:06.808Z,100178.63
2019-02-14T08:24:36.067Z,100196.34
2019-02-14T08:27:05.333Z,100195.77
2019-02-14T08:29:34.621Z,100197.16
2019-02-14T08:32:03.880Z,100193.92
2019-02-14T08:34:33.176Z,100182.42
2019-02-14T08:37:02.433Z,100194.89
2019-02-14T08:39:31.718Z,100194.50
2019-02-14T08:42:00.949Z,100193.39
2019-02-14T08:44:30.230Z,100190.16
2019-02-14T08:46:59.492Z,100193.69
2019-02-14T08:49:28.770Z,100201.98
2019-02-14T08:51:58.028Z,100188.92
2019-02-14T08:54:27.342Z,100186.97
2019-02-14T08:56:56.615Z,100173.75
2019-02-14T08:59:28.724Z,100181.19
2019-02-14T09:01:57.991Z,100182.98
2019-02-14T09:04:27.256Z,100194.29
2019-02-14T09:06:56.487Z,100183.95
2019-02-14T09:09:25.748Z,100183.20
2019-02-14T09:11:55.023Z,100172.06
2019-02-14T09:14:24.264Z,100172.78
2019-02-14T09:16:53.507Z,100177.08
2019-02-14T09:19:22.792Z,100171.31
2019-02-14T09:21:52.013Z,100173.27
2019-02-14T09:24:21.292Z,100183.40
2019-02-14T09:26:50.533Z,100185.22
2019-02-14T09:29:19.792Z,100185.22
2019-02-14T09:31:49.054Z,100190.33
2019-02-14T09:34:18.336Z,100180.26
2019-02-14T09:36:47.561Z,100174.54
2019-02-14T09:39:16.835Z,100188.27
2019-02-14T09:41:46.122Z,100198.30
2019-02-14T09:44:15.464Z,100193.80
2019-02-14T09:46:44.754Z,100192.95
2019-02-14T09:49:14.003Z,100185.63
2019-02-14T09:51:43.261Z,100187.55
2019-02-14T09:54:12.527Z,100197.97
2019-02-14T09:56:41.775Z,100191.02
2019-02-14T09:59:11.061Z,100182.70
2019-02-14T10:01:40.257Z,100181.05
2019-02-14T10:04:09.566Z,100182.94
2019-02-14T10:06:38.910Z,100169.94
2019-02-14T10:09:08.931Z,100171.59
2019-02-14T10:11:38.146Z,100177.34
2019-02-14T10:14:07.414Z,100171.41
2019-02-14T10:16:36.688Z,100164.42
2019-02-14T10:19:05.969Z,100166.45
2019-02-14T10:21:35.199Z,100164.61
2019-02-14T10:24:04.465Z,100177.66
2019-02-14T10:26:33.724Z,100168.89
2019-02-14T10:29:03.027Z,100169.74
2019-02-14T10:31:32.300Z,100163.88
2019-02-14T10:34:01.589Z,100164.89
2019-02-14T10:36:30.971Z,100169.24
2019-02-14T10:39:00.231Z,100167.35
2019-02-14T10:41:29.493Z,100160.80
2019-02-14T10:43:58.826Z,100160.81
2019-02-14T10:46:28.072Z,100163.97
2019-02-14T10:48:57.399Z,100158.89
2019-02-14T10:51:26.679Z,100168.87
2019-02-14T10:53:55.940Z,100167.83
2019-02-14T10:56:25.257Z,100170.89
2019-02-14T10:58:54.527Z,100162.80
2019-02-14T11:01:23.791Z,100156.23
2019-02-14T11:03:53.085Z,100154.56
2019-02-14T11:06:22.441Z,100153.47
2019-02-14T11:08:51.764Z,100159.73
2019-02-14T11:11:21.096Z,100153.31
2019-02-14T11:13:50.337Z,100152.08
2019-02-14T11:16:19.591Z,100155.33
2019-02-14T11:18:48.946Z,100148.06
2019-02-14T11:21:18.310Z,100145.92
2019-02-14T11:23:47.952Z,100134.44
2019-02-14T11:26:17.254Z,100139.59
2019-02-14T11:28:46.538Z,100125.17
2019-02-14T11:31:15.853Z,100121.81
2019-02-14T11:33:45.123Z,100121.81
2019-02-14T11:36:14.417Z,100128.49
2019-02-14T11:38:43.682Z,100126.14
2019-02-14T11:41:14.574Z,100115.33
2019-02-14T11:43:43.853Z,100118.63
2019-02-14T11:46:13.124Z,100113.10
2019-02-14T11:48:42.355Z,100111.17
2019-02-14T11:51:11.611Z,100112.14
2019-02-14T11:53:40.881Z,100116.73
2019-02-14T11:56:10.174Z,100108.00
2019-02-14T11:58:39.408Z,100100.63
2019-02-14T12:01:08.667Z,100086.01
2019-02-14T12:03:38.055Z,100078.81
2019-02-14T12:06:07.338Z,100082.21
2019-02-14T12:08:37.775Z,100080.80
2019-02-14T12:11:07.055Z,100070.89
2019-02-14T12:13:36.330Z,100084.20
2019-02-14T12:16:05.649Z,100090.13
2019-02-14T12:18:34.887Z,100082.48
2019-02-14T12:21:04.199Z,100069.80
2019-02-14T12:23:33.433Z,100062.46
2019-02-14T12:26:02.696Z,100062.95
2019-02-14T12:28:32.039Z,100056.95
2019-02-14T12:31:01.299Z,100034.97
2019-02-14T12:33:30.559Z,100037.44
2019-02-14T12:35:59.830Z,100042.23
2019-02-14T12:38:29.083Z,100044.35
2019-02-14T12:40:58.370Z,100040.19
2019-02-14T12:43:27.711Z,100052.34
2019-02-14T12:45:57.087Z,100061.28
2019-02-14T12:48:26.342Z,100068.01
2019-02-14T12:50:55.623Z,100055.89
2019-02-14T12:53:24.885Z,100056.50
2019-02-14T12:55:54.174Z,100060.34
2019-02-14T12:58:23.434Z,100050.96
2019-02-14T13:00:52.780Z,100057.97
2019-02-14T13:03:22.060Z,100061.09
2019-02-14T13:05:51.352Z,100058.70
2019-02-14T13:08:20.581Z,100055.58
2019-02-14T13:10:49.839Z,100053.88
2019-02-14T13:13:19.173Z,100052.71
2019-02-14T13:15:48.454Z,100058.47
2019-02-14T13:18:17.755Z,100053.27
2019-02-14T13:20:47.027Z,100056.67
2019-02-14T13:23:16.295Z,100050.52
2019-02-14T13:25:45.595Z,100040.86
2019-02-14T13:28:14.835Z,100051.52
2019-02-14T13:30:44.111Z,100045.88
2019-02-14T13:33:13.363Z,100039.81
2019-02-14T13:35:42.698Z,100033.79
2019-02-14T13:38:11.936Z,100026.41
2019-02-14T13:40:41.190Z,100032.64
2019-02-14T13:43:10.655Z,100030.45
2019-02-14T13:45:39.990Z,100020.06
2019-02-14T13:48:09.251Z,100015.97
2019-02-14T13:50:38.526Z,100020.64
2019-02-14T13:53:07.739Z,100023.59
2019-02-14T13:55:37.074Z,100016.58
2019-02-14T13:58:06.307Z,100019.56
2019-02-14T14:00:35.547Z,100018.78
2019-02-14T14:03:04.811Z,100011.26
2019-02-14T14:05:34.090Z,100009.84
2019-02-14T14:08:03.356Z,100010.03
2019-02-14T14:10:32.633Z,100011.97
2019-02-14T14:13:01.851Z,100019.69
2019-02-14T14:15:31.071Z,100010.93
2019-02-14T14:18:00.348Z,100003.33
2019-02-14T14:20:29.602Z,100009.75
2019-02-14T14:22:58.882Z,100003.64
2019-02-14T14:25:28.115Z,99992.02
2019-02-14T14:27:57.398Z,99980.80
2019-02-14T14:30:26.620Z,99985.22
2019-02-14T14:32:55.881Z,99987.16
2019-02-14T14:35:25.098Z,99993.66
2019-02-14T14:37:54.368Z,99991.31
2019-02-14T14:40:23.602Z,99993.44
2019-02-14T14:43:11.851Z,100000.70
2019-02-14T14:45:51.401Z,99986.56
2019-02-14T14:48:20.697Z,99982.88
2019-02-14T14:50:49.923Z,99966.16
2019-02-14T14:53:19.182Z,99964.75
2019-02-14T14:55:48.437Z,99955.47
2019-02-14T14:58:17.719Z,99956.30
2019-02-14T15:00:47.143Z,99971.55
2019-02-14T15:03:16.400Z,99974.86
2019-02-14T15:05:45.626Z,99966.02
2019-02-14T15:08:14.861Z,99964.77
2019-02-14T15:10:44.119Z,99967.66
2019-02-14T15:13:13.390Z,99960.77
2019-02-14T15:15:42.617Z,99959.80
2019-02-14T15:18:12.762Z,99950.66
2019-02-14T15:20:42.024Z,99954.14
2019-02-14T15:23:11.307Z,99951.35
2019-02-14T15:25:40.542Z,99956.68
2019-02-14T15:28:09.804Z,99950.35
2019-02-14T15:30:39.055Z,99958.40
2019-02-14T15:33:08.293Z,99962.72
2019-02-14T15:35:37.618Z,99955.18
2019-02-14T15:38:07.987Z,99961.47
2019-02-14T15:40:37.831Z,99966.63
2019-02-14T15:43:07.104Z,99963.63
2019-02-14T15:45:36.448Z,99960.88
2019-02-14T15:48:05.703Z,99961.88
2019-02-14T15:50:34.939Z,99964.64
2019-02-14T15:53:04.190Z,99969.87
2019-02-14T15:55:33.438Z,99979.75
2019-02-14T15:58:04.433Z,99975.29
2019-02-14T16:00:35.110Z,99970.16
2019-02-14T16:03:04.517Z,99969.50
2019-02-14T16:05:33.748Z,99966.15
2019-02-14T16:08:04.925Z,99961.98
2019-02-14T16:10:33.966Z,99968.14
2019-02-14T16:13:05.286Z,99970.13
2019-02-14T16:15:34.493Z,99965.14
2019-02-14T16:18:03.757Z,99972.93
2019-02-14T16:20:32.998Z,99964.11
2019-02-14T16:23:04.165Z,99970.91
2019-02-14T16:25:33.244Z,99972.34
2019-02-14T16:28:02.527Z,99970.02
2019-02-14T16:30:33.344Z,99975.13
2019-02-14T16:33:02.817Z,99972.78
2019-02-14T16:35:32.064Z,99980.05
2019-02-14T16:38:01.339Z,99975.20
2019-02-14T16:40:38.244Z,99982.14
2019-02-14T16:43:01.510Z,99979.95
2019-02-14T16:45:30.744Z,99978.10
2019-02-14T16:48:00.058Z,99984.16
2019-02-14T16:50:29.334Z,99975.00
2019-02-14T16:52:58.594Z,99978.62
2019-02-14T16:55:27.879Z,99981.88
2019-02-14T16:57:57.133Z,99984.66
2019-02-14T17:00:26.357Z,99987.23
2019-02-14T17:02:55.602Z,99988.63
2019-02-14T17:05:24.853Z,99994.04
2019-02-14T17:07:56.009Z,99990.69
2019-02-14T17:10:25.053Z,99991.88
2019-02-14T17:12:54.289Z,99999.77
2019-02-14T17:15:23.560Z,99998.86
2019-02-14T17:17:52.861Z,100001.55
2019-02-14T17:20:22.076Z,100006.21
2019-02-14T17:22:51.307Z,100003.64
2019-02-14T17:25:20.535Z,99994.09
2019-02-14T17:27:49.749Z,99995.98
2019-02-14T17:30:18.996Z,100001.41
2019-02-14T17:32:48.232Z,100000.18
2019-02-14T17:35:17.500Z,100004.09
2019-02-14T17:37:46.751Z,100011.16
2019-02-14T17:40:15.993Z,99998.70
2019-02-14T17:42:45.245Z,100004.77
2019-02-14T17:45:14.521Z,100003.84
2019-02-14T17:47:43.759Z,100006.50
2019-02-14T17:50:13.018Z,100006.39
2019-02-14T17:52:42.238Z,100008.31
2019-02-14T17:55:11.520Z,100006.08
2019-02-14T17:57:40.956Z,100005.42
2019-02-14T18:00:10.923Z,100000.72
2019-02-14T18:02:40.144Z,100006.70
2019-02-14T18:05:09.515Z,100004.27
2019-02-14T18:07:38.798Z,100006.59
2019-02-14T18:10:09.273Z,100011.03
2019-02-14T18:12:38.509Z,100013.26
2019-02-14T18:15:10.092Z,100013.52
2019-02-14T18:17:39.309Z,100012.94
2019-02-14T18:20:09.726Z,100005.86
2019-02-14T18:22:39.333Z,100013.78
2019-02-14T18:25:09.924Z,100016.39
2019-02-14T18:27:39.157Z,100011.21
2019-02-14T18:30:09.446Z,100012.71
2019-02-14T18:32:38.666Z,100009.98
2019-02-14T18:35:08.655Z,100008.15
2019-02-14T18:37:38.179Z,100008.42
2019-02-14T18:40:08.228Z,100004.99
2019-02-14T18:42:37.624Z,100004.41
2019-02-14T18:45:09.265Z,100002.31
2019-02-14T18:47:39.879Z,100000.03
2019-02-14T18:50:10.146Z,100001.32
2019-02-14T18:52:39.377Z,100009.70
2019-02-14T18:55:09.156Z,100005.64
2019-02-14T18:57:38.395Z,99998.72
2019-02-14T19:00:10.440Z,100003.45
2019-02-14T19:02:39.718Z,100000.47
2019-02-14T19:05:09.958Z,99999.42
2019-02-14T19:07:39.287Z,99989.42
2019-02-14T19:10:09.988Z,99989.93
2019-02-14T19:12:39.268Z,99991.55
2019-02-14T19:15:09.217Z,99989.80
2019-02-14T19:17:38.477Z,99979.89
2019-02-14T19:20:08.862Z,99978.88
2019-02-14T19:22:38.206Z,99976.62
2019-02-14T19:25:07.554Z,99972.50
2019-02-14T19:27:36.845Z,99970.70
2019-02-14T19:30:06.785Z,99964.28
2019-02-14T19:32:36.015Z,99963.98
2019-02-14T19:35:05.984Z,99968.69
2019-02-14T19:37:35.261Z,99954.97
2019-02-14T19:40:05.664Z,99963.64
2019-02-14T19:42:35.111Z,99960.27
2019-02-14T19:45:04.357Z,99956.27
2019-02-14T19:47:33.661Z,99966.22
2019-02-14T19:50:02.962Z,99960.37
2019-02-14T19:52:32.223Z,99963.24
2019-02-14T19:55:01.472Z,99968.27
2019-02-14T19:57:30.735Z,99960.71
2019-02-14T19:59:59.980Z,99961.92
2019-02-14T20:02:29.222Z,99963.47
2019-02-14T20:04:58.460Z,99970.90
2019-02-14T20:07:27.745Z,99975.59
2019-02-14T20:09:56.948Z,99979.80
2019-02-14T20:12:26.182Z,99978.17
2019-02-14T20:14:55.450Z,99978.98
2019-02-14T20:17:24.716Z,99976.34
2019-02-14T20:19:53.991Z,99987.38
2019-02-14T20:22:23.262Z,99977.45
2019-02-14T20:24:52.505Z,99980.21
2019-02-14T20:27:21.769Z,99980.09
2019-02-14T20:29:51.019Z,99980.37
2019-02-14T20:32:20.285Z,99985.25
2019-02-14T20:34:49.533Z,99988.16
2019-02-14T20:37:18.795Z,99985.91
2019-02-14T20:39:48.038Z,99988.21
2019-02-14T20:42:17.280Z,99986.43
2019-02-14T20:44:46.558Z,99981.77
2019-02-14T20:47:15.832Z,99977.83
2019-02-14T20:49:45.077Z,99977.36
2019-02-14T20:52:14.284Z,99984.40
2019-02-14T20:54:43.531Z,99985.71
2019-02-14T20:57:12.768Z,99976.52
2019-02-14T20:59:42.004Z,99980.20
2019-02-14T21:02:11.238Z,99980.45
2019-02-14T21:04:40.475Z,99981.17
2019-02-14T21:07:10.141Z,99977.83
2019-02-14T21:09:39.410Z,99975.07
2019-02-14T21:12:08.627Z,99967.31
2019-02-14T21:14:37.895Z,99973.62
2019-02-14T21:17:07.140Z,99975.45
2019-02-14T21:19:36.412Z,99980.08
2019-02-14T21:22:17.287Z,99975.06
2019-02-14T21:24:36.609Z,99973.75
2019-02-14T21:27:05.857Z,99976.76
2019-02-14T21:29:35.130Z,99972.69
2019-02-14T21:32:04.366Z,99968.03
2019-02-14T21:34:33.624Z,99965.66
2019-02-14T21:37:02.876Z,99973.80
2019-02-14T21:39:32.167Z,99985.63
2019-02-14T21:42:18.760Z,99982.87
2019-02-14T21:44:32.374Z,99987.28
2019-02-14T21:47:02.840Z,99987.18
2019-02-14T21:49:32.164Z,99988.02
2019-02-14T21:52:01.391Z,99988.24
2019-02-14T21:54:30.660Z,99996.97
2019-02-14T21:56:59.919Z,99997.08
2019-02-14T21:59:29.145Z,99999.45
2019-02-14T22:01:58.386Z,99998.73
2019-02-14T22:04:27.676Z,100008.64
2019-02-14T22:06:56.890Z,99999.53
2019-02-14T22:09:26.142Z,99996.56
2019-02-14T22:11:55.398Z,99989.75
2019-02-14T22:14:24.631Z,99988.42
2019-02-14T22:16:53.932Z,99990.56
2019-02-14T22:19:23.198Z,99985.09
2019-02-14T22:21:52.429Z,99979.05
2019-02-14T22:24:21.699Z,99980.81
2019-02-14T22:26:50.954Z,99977.47
2019-02-14T22:29:20.221Z,99988.30
2019-02-14T22:31:49.449Z,99984.73
2019-02-14T22:34:18.683Z,99985.47
2019-02-14T22:36:47.928Z,99980.94
2019-02-14T22:39:17.207Z,99987.01
2019-02-14T22:41:46.425Z,99980.35
2019-02-14T22:44:15.695Z,99979.97
2019-02-14T22:46:44.954Z,99989.28
2019-02-14T22:49:14.225Z,99987.59
2019-02-14T22:51:43.486Z,99990.69
2019-02-14T22:54:12.772Z,99992.47
2019-02-14T22:56:42.005Z,99998.56
2019-02-14T22:59:11.278Z,99996.42
2019-02-14T23:01:41.315Z,100006.80
2019-02-14T23:04:10.591Z,100002.96
2019-02-14T23:06:39.818Z,100001.62
2019-02-14T23:09:10.297Z,100002.59
2019-02-14T23:11:39.542Z,99998.16
2019-02-14T23:14:08.858Z,99998.13
2019-02-14T23:16:38.103Z,99995.75
2019-02-14T23:19:07.459Z,99998.86
2019-02-14T23:21:36.679Z,100000.55
2019-02-14T23:24:05.949Z,99990.88
2019-02-14T23:26:35.188Z,99999.08
2019-02-14T23:29:04.435Z,100000.64
2019-02-14T23:31:33.891Z,99996.22
2019-02-14T23:34:03.148Z,100011.56
2019-02-14T23:36:32.370Z,99999.17
2019-02-14T23:39:01.661Z,100005.61
2019-02-14T23:41:30.878Z,100008.00
2019-02-14T23:44:00.166Z,100010.36
2019-02-14T23:46:29.443Z,100005.00
2019-02-14T23:48:58.721Z,100005.33
2019-02-14T23:51:27.992Z,100006.41
2019-02-14T23:53:57.232Z,100007.88
2019-02-14T23:56:26.679Z,100007.58
2019-02-14T23:58:55.918Z,100004.27
